sensor_id;sensor_type;location;lat;lon;timestamp;P1;P2;P0
55449;PMS5003;41318;58.724;50.180;2022-08-03T00:01:26;32.20;31.20;22.00
55449;PMS5003;41318;58.724;50.180;2022-08-03T00:03:57;35.20;33.20;20.60
55449;PMS5003;41318;58.724;50.180;2022-08-03T00:06:47;36.20;32.40;21.60
55449;PMS5003;41318;58.724;50.180;2022-08-03T00:09:18;34.60;31.80;21.40
55449;PMS5003;41318;58.724;50.180;2022-08-03T00:12:08;33.80;32.00;22.00
55449;PMS5003;41318;58.724;50.180;2022-08-03T00:14:39;34.40;32.40;22.60
55449;PMS5003;41318;58.724;50.180;2022-08-03T00:17:10;36.60;33.40;22.40
55449;PMS5003;41318;58.724;50.180;2022-08-03T00:19:41;31.00;30.60;20.20
55449;PMS5003;41318;58.724;50.180;2022-08-03T00:22:12;29.60;29.60;22.00
55449;PMS5003;41318;58.724;50.180;2022-08-03T00:24:43;32.40;31.40;22.00
55449;PMS5003;41318;58.724;50.180;2022-08-03T00:27:14;31.25;30.50;20.00
55449;PMS5003;41318;58.724;50.180;2022-08-03T00:29:45;28.40;27.80;20.00
55449;PMS5003;41318;58.724;50.180;2022-08-03T00:32:16;26.20;25.40;18.80
55449;PMS5003;41318;58.724;50.180;2022-08-03T00:34:47;20.60;20.60;17.20
55449;PMS5003;41318;58.724;50.180;2022-08-03T00:37:18;25.00;25.00;16.00
55449;PMS5003;41318;58.724;50.180;2022-08-03T00:39:49;23.00;22.75;16.50
55449;PMS5003;41318;58.724;50.180;2022-08-03T00:42:21;24.80;23.60;15.60
55449;PMS5003;41318;58.724;50.180;2022-08-03T00:44:52;19.60;19.60;12.00
55449;PMS5003;41318;58.724;50.180;2022-08-03T00:47:23;19.75;19.75;13.25
55449;PMS5003;41318;58.724;50.180;2022-08-03T00:49:54;17.75;17.75;13.00
55449;PMS5003;41318;58.724;50.180;2022-08-03T00:52:25;21.00;21.00;14.00
55449;PMS5003;41318;58.724;50.180;2022-08-03T00:54:56;20.75;20.75;15.50
55449;PMS5003;41318;58.724;50.180;2022-08-03T00:57:46;21.40;21.40;16.00
55449;PMS5003;41318;58.724;50.180;2022-08-03T01:00:19;21.50;21.00;14.25
55449;PMS5003;41318;58.724;50.180;2022-08-03T01:02:51;22.00;22.00;17.25
55449;PMS5003;41318;58.724;50.180;2022-08-03T01:05:52;16.75;16.75;13.25
55449;PMS5003;41318;58.724;50.180;2022-08-03T01:11:09;19.40;19.40;14.00
55449;PMS5003;41318;58.724;50.180;2022-08-03T01:14:02;19.60;19.40;16.60
55449;PMS5003;41318;58.724;50.180;2022-08-03T01:22:04;22.20;21.80;16.20
55449;PMS5003;41318;58.724;50.180;2022-08-03T01:24:48;26.40;26.40;18.20
55449;PMS5003;41318;58.724;50.180;2022-08-03T01:27:22;25.00;24.60;18.20
55449;PMS5003;41318;58.724;50.180;2022-08-03T01:30:13;26.25;26.25;18.50
55449;PMS5003;41318;58.724;50.180;2022-08-03T01:32:53;33.40;32.00;22.20
55449;PMS5003;41318;58.724;50.180;2022-08-03T01:38:00;33.40;32.00;22.00
55449;PMS5003;41318;58.724;50.180;2022-08-03T01:40:33;33.60;31.80;22.20
55449;PMS5003;41318;58.724;50.180;2022-08-03T01:43:05;32.60;31.60;22.00
55449;PMS5003;41318;58.724;50.180;2022-08-03T01:45:37;28.40;28.40;19.40
55449;PMS5003;41318;58.724;50.180;2022-08-03T01:48:10;35.80;33.20;21.00
55449;PMS5003;41318;58.724;50.180;2022-08-03T01:50:42;29.40;29.40;20.00
55449;PMS5003;41318;58.724;50.180;2022-08-03T01:53:15;25.60;25.60;20.00
55449;PMS5003;41318;58.724;50.180;2022-08-03T01:55:48;35.40;32.00;22.00
55449;PMS5003;41318;58.724;50.180;2022-08-03T01:58:20;17.75;17.75;12.75
55449;PMS5003;41318;58.724;50.180;2022-08-03T02:00:52;18.00;18.00;13.75
55449;PMS5003;41318;58.724;50.180;2022-08-03T02:03:29;21.25;21.25;16.00
55449;PMS5003;41318;58.724;50.180;2022-08-03T02:06:01;21.00;21.00;16.00
55449;PMS5003;41318;58.724;50.180;2022-08-03T02:08:33;19.25;19.25;14.00
55449;PMS5003;41318;58.724;50.180;2022-08-03T02:11:04;25.25;25.00;19.75
55449;PMS5003;41318;58.724;50.180;2022-08-03T02:13:55;25.00;25.00;18.50
55449;PMS5003;41318;58.724;50.180;2022-08-03T02:16:46;24.25;24.25;17.00
55449;PMS5003;41318;58.724;50.180;2022-08-03T02:19:18;18.75;18.75;14.00
55449;PMS5003;41318;58.724;50.180;2022-08-03T02:21:50;22.50;22.50;17.50
55449;PMS5003;41318;58.724;50.180;2022-08-03T02:24:21;21.25;21.25;15.50
55449;PMS5003;41318;58.724;50.180;2022-08-03T02:26:52;17.75;17.75;13.75
55449;PMS5003;41318;58.724;50.180;2022-08-03T02:29:26;17.25;17.25;14.00
55449;PMS5003;41318;58.724;50.180;2022-08-03T02:31:59;16.25;16.25;12.50
55449;PMS5003;41318;58.724;50.180;2022-08-03T02:34:34;14.25;14.25;9.50
55449;PMS5003;41318;58.724;50.180;2022-08-03T02:37:06;16.25;16.25;12.00
55449;PMS5003;41318;58.724;50.180;2022-08-03T02:39:40;17.25;17.25;11.25
55449;PMS5003;41318;58.724;50.180;2022-08-03T02:42:13;15.75;15.75;12.00
55449;PMS5003;41318;58.724;50.180;2022-08-03T02:44:45;18.25;18.25;13.25
55449;PMS5003;41318;58.724;50.180;2022-08-03T02:47:18;19.75;19.75;14.25
55449;PMS5003;41318;58.724;50.180;2022-08-03T02:49:51;14.50;14.50;12.25
55449;PMS5003;41318;58.724;50.180;2022-08-03T02:52:24;15.25;15.25;12.25
55449;PMS5003;41318;58.724;50.180;2022-08-03T02:54:57;17.25;17.25;13.25
55449;PMS5003;41318;58.724;50.180;2022-08-03T02:57:29;15.75;15.75;13.00
55449;PMS5003;41318;58.724;50.180;2022-08-03T03:00:01;16.00;16.00;13.25
55449;PMS5003;41318;58.724;50.180;2022-08-03T03:02:33;16.00;16.00;13.25
55449;PMS5003;41318;58.724;50.180;2022-08-03T03:05:04;18.00;18.00;12.75
55449;PMS5003;41318;58.724;50.180;2022-08-03T03:07:36;14.25;14.25;11.50
55449;PMS5003;41318;58.724;50.180;2022-08-03T03:10:07;14.50;14.50;12.25
55449;PMS5003;41318;58.724;50.180;2022-08-03T03:12:39;26.75;26.75;18.25
55449;PMS5003;41318;58.724;50.180;2022-08-03T03:15:11;65.40;53.40;33.00
55449;PMS5003;41318;58.724;50.180;2022-08-03T03:17:42;76.40;71.00;41.20
55449;PMS5003;41318;58.724;50.180;2022-08-03T03:20:35;63.80;52.40;33.00
55449;PMS5003;41318;58.724;50.180;2022-08-03T03:23:07;48.60;41.00;27.00
55449;PMS5003;41318;58.724;50.180;2022-08-03T03:25:39;45.80;38.00;25.80
55449;PMS5003;41318;58.724;50.180;2022-08-03T03:28:13;27.25;27.25;20.00
55449;PMS5003;41318;58.724;50.180;2022-08-03T03:30:45;24.50;24.25;18.00
55449;PMS5003;41318;58.724;50.180;2022-08-03T03:33:17;27.50;27.50;20.50
55449;PMS5003;41318;58.724;50.180;2022-08-03T03:35:48;35.00;32.60;23.80
55449;PMS5003;41318;58.724;50.180;2022-08-03T03:38:21;28.00;27.75;21.25
55449;PMS5003;41318;58.724;50.180;2022-08-03T03:40:52;31.80;30.80;22.20
55449;PMS5003;41318;58.724;50.180;2022-08-03T03:43:24;32.25;31.25;22.50
55449;PMS5003;41318;58.724;50.180;2022-08-03T03:45:55;27.00;27.00;22.00
55449;PMS5003;41318;58.724;50.180;2022-08-03T03:48:26;23.25;23.25;17.00
55449;PMS5003;41318;58.724;50.180;2022-08-03T03:50:59;18.75;18.75;16.00
55449;PMS5003;41318;58.724;50.180;2022-08-03T03:53:30;8.75;8.75;5.00
55449;PMS5003;41318;58.724;50.180;2022-08-03T03:56:01;19.67;19.67;16.00
55449;PMS5003;41318;58.724;50.180;2022-08-03T03:58:32;15.75;15.75;13.00
55449;PMS5003;41318;58.724;50.180;2022-08-03T04:01:03;15.00;15.00;12.00
55449;PMS5003;41318;58.724;50.180;2022-08-03T04:03:34;16.00;16.00;13.67
55449;PMS5003;41318;58.724;50.180;2022-08-03T04:06:05;17.75;17.75;14.50
55449;PMS5003;41318;58.724;50.180;2022-08-03T04:08:54;31.00;30.00;19.75
55449;PMS5003;41318;58.724;50.180;2022-08-03T04:12:02;24.00;23.25;16.75
55449;PMS5003;41318;58.724;50.180;2022-08-03T04:14:34;17.00;17.00;13.00
55449;PMS5003;41318;58.724;50.180;2022-08-03T04:17:07;16.50;16.50;14.25
55449;PMS5003;41318;58.724;50.180;2022-08-03T04:19:40;17.00;17.00;14.00
55449;PMS5003;41318;58.724;50.180;2022-08-03T04:22:13;18.25;18.25;15.00
55449;PMS5003;41318;58.724;50.180;2022-08-03T04:24:51;11.50;11.50;10.00
55449;PMS5003;41318;58.724;50.180;2022-08-03T04:27:24;15.50;15.50;13.00
55449;PMS5003;41318;58.724;50.180;2022-08-03T04:29:56;16.00;15.50;13.00
55449;PMS5003;41318;58.724;50.180;2022-08-03T04:32:28;13.75;13.75;11.75
55449;PMS5003;41318;58.724;50.180;2022-08-03T04:35:00;10.50;10.50;9.50
55449;PMS5003;41318;58.724;50.180;2022-08-03T04:37:34;12.75;12.75;10.50
55449;PMS5003;41318;58.724;50.180;2022-08-03T04:40:09;14.50;14.50;12.25
55449;PMS5003;41318;58.724;50.180;2022-08-03T04:42:41;13.00;13.00;11.25
55449;PMS5003;41318;58.724;50.180;2022-08-03T04:45:12;14.00;14.00;12.25
55449;PMS5003;41318;58.724;50.180;2022-08-03T04:47:44;11.75;11.75;10.75
55449;PMS5003;41318;58.724;50.180;2022-08-03T04:50:15;9.25;9.25;8.25
55449;PMS5003;41318;58.724;50.180;2022-08-03T04:52:47;10.75;10.75;9.50
55449;PMS5003;41318;58.724;50.180;2022-08-03T04:55:27;9.67;9.67;8.33
55449;PMS5003;41318;58.724;50.180;2022-08-03T04:57:59;10.75;10.75;9.50
55449;PMS5003;41318;58.724;50.180;2022-08-03T05:00:48;23.25;20.75;16.25
55449;PMS5003;41318;58.724;50.180;2022-08-03T05:03:21;15.25;15.25;13.00
55449;PMS5003;41318;58.724;50.180;2022-08-03T05:05:52;10.50;10.50;8.75
55449;PMS5003;41318;58.724;50.180;2022-08-03T05:08:24;7.75;7.75;7.00
55449;PMS5003;41318;58.724;50.180;2022-08-03T05:10:55;12.25;12.25;10.00
55449;PMS5003;41318;58.724;50.180;2022-08-03T05:13:26;7.00;7.00;6.25
55449;PMS5003;41318;58.724;50.180;2022-08-03T05:15:57;8.00;8.00;6.25
55449;PMS5003;41318;58.724;50.180;2022-08-03T05:18:28;5.67;5.67;5.67
55449;PMS5003;41318;58.724;50.180;2022-08-03T05:20:59;6.50;6.50;6.25
55449;PMS5003;41318;58.724;50.180;2022-08-03T05:23:30;11.67;11.33;8.67
55449;PMS5003;41318;58.724;50.180;2022-08-03T05:26:01;15.67;15.67;13.00
55449;PMS5003;41318;58.724;50.180;2022-08-03T05:28:32;9.00;9.00;8.00
55449;PMS5003;41318;58.724;50.180;2022-08-03T05:31:03;9.25;9.25;8.00
55449;PMS5003;41318;58.724;50.180;2022-08-03T05:33:34;9.33;9.33;8.00
55449;PMS5003;41318;58.724;50.180;2022-08-03T05:36:05;7.33;7.33;7.00
55449;PMS5003;41318;58.724;50.180;2022-08-03T05:38:36;11.25;11.25;8.75
55449;PMS5003;41318;58.724;50.180;2022-08-03T05:41:07;9.25;9.25;8.50
55449;PMS5003;41318;58.724;50.180;2022-08-03T05:43:37;9.00;9.00;7.00
55449;PMS5003;41318;58.724;50.180;2022-08-03T05:46:27;8.50;8.50;7.50
55449;PMS5003;41318;58.724;50.180;2022-08-03T05:48:58;6.33;6.33;6.33
55449;PMS5003;41318;58.724;50.180;2022-08-03T05:51:29;6.67;6.67;6.00
55449;PMS5003;41318;58.724;50.180;2022-08-03T05:53:59;8.33;8.33;7.00
55449;PMS5003;41318;58.724;50.180;2022-08-03T05:56:31;13.50;13.50;11.50
55449;PMS5003;41318;58.724;50.180;2022-08-03T05:59:02;15.75;15.75;13.50
55449;PMS5003;41318;58.724;50.180;2022-08-03T06:01:33;13.00;13.00;10.00
55449;PMS5003;41318;58.724;50.180;2022-08-03T06:04:22;8.25;8.25;7.25
55449;PMS5003;41318;58.724;50.180;2022-08-03T06:07:11;11.25;11.25;10.50
55449;PMS5003;41318;58.724;50.180;2022-08-03T06:09:42;7.33;7.33;7.00
55449;PMS5003;41318;58.724;50.180;2022-08-03T06:12:13;9.25;9.25;8.00
55449;PMS5003;41318;58.724;50.180;2022-08-03T06:14:44;15.00;15.00;13.00
55449;PMS5003;41318;58.724;50.180;2022-08-03T06:17:40;11.75;11.75;10.50
55449;PMS5003;41318;58.724;50.180;2022-08-03T06:20:16;14.50;14.50;12.50
55449;PMS5003;41318;58.724;50.180;2022-08-03T06:22:47;9.00;9.00;8.00
55449;PMS5003;41318;58.724;50.180;2022-08-03T06:25:19;5.75;5.75;5.00
55449;PMS5003;41318;58.724;50.180;2022-08-03T06:27:49;5.00;5.00;4.75
55449;PMS5003;41318;58.724;50.180;2022-08-03T06:30:21;7.00;7.00;6.25
55449;PMS5003;41318;58.724;50.180;2022-08-03T06:32:52;5.00;5.00;4.00
55449;PMS5003;41318;58.724;50.180;2022-08-03T06:35:23;8.00;8.00;6.25
55449;PMS5003;41318;58.724;50.180;2022-08-03T06:37:54;6.50;6.50;5.00
55449;PMS5003;41318;58.724;50.180;2022-08-03T06:40:25;4.50;4.50;3.25
55449;PMS5003;41318;58.724;50.180;2022-08-03T06:43:03;2.75;2.75;2.00
55449;PMS5003;41318;58.724;50.180;2022-08-03T06:45:34;3.00;3.00;2.33
55449;PMS5003;41318;58.724;50.180;2022-08-03T06:48:06;5.00;5.00;4.75
55449;PMS5003;41318;58.724;50.180;2022-08-03T06:50:38;3.50;3.50;3.50
55449;PMS5003;41318;58.724;50.180;2022-08-03T06:53:09;5.00;5.00;4.00
55449;PMS5003;41318;58.724;50.180;2022-08-03T06:55:42;10.00;9.50;7.50
55449;PMS5003;41318;58.724;50.180;2022-08-03T06:58:12;5.00;5.00;4.00
55449;PMS5003;41318;58.724;50.180;2022-08-03T07:00:43;6.00;6.00;5.50
55449;PMS5003;41318;58.724;50.180;2022-08-03T07:03:15;5.25;5.25;4.00
55449;PMS5003;41318;58.724;50.180;2022-08-03T07:05:46;7.00;7.00;6.00
55449;PMS5003;41318;58.724;50.180;2022-08-03T07:08:16;3.00;3.00;2.50
55449;PMS5003;41318;58.724;50.180;2022-08-03T07:10:47;10.50;10.50;9.00
55449;PMS5003;41318;58.724;50.180;2022-08-03T07:13:18;4.25;4.25;4.00
55449;PMS5003;41318;58.724;50.180;2022-08-03T07:15:49;18.25;18.25;17.25
55449;PMS5003;41318;58.724;50.180;2022-08-03T07:18:20;5.00;5.00;4.50
55449;PMS5003;41318;58.724;50.180;2022-08-03T07:20:51;3.50;3.50;3.00
55449;PMS5003;41318;58.724;50.180;2022-08-03T07:23:22;9.25;9.25;9.00
55449;PMS5003;41318;58.724;50.180;2022-08-03T07:25:53;4.25;4.25;4.00
55449;PMS5003;41318;58.724;50.180;2022-08-03T07:28:24;9.67;9.67;8.33
55449;PMS5003;41318;58.724;50.180;2022-08-03T07:30:55;6.33;6.33;5.33
55449;PMS5003;41318;58.724;50.180;2022-08-03T07:33:26;4.33;4.33;4.00
55449;PMS5003;41318;58.724;50.180;2022-08-03T07:36:15;5.00;5.00;4.00
55449;PMS5003;41318;58.724;50.180;2022-08-03T07:39:05;16.00;16.00;14.00
55449;PMS5003;41318;58.724;50.180;2022-08-03T07:41:36;8.75;8.75;6.75
55449;PMS5003;41318;58.724;50.180;2022-08-03T07:44:07;5.25;5.25;5.00
55449;PMS5003;41318;58.724;50.180;2022-08-03T07:46:56;5.25;5.25;5.00
55449;PMS5003;41318;58.724;50.180;2022-08-03T07:49:27;2.00;2.00;2.00
55449;PMS5003;41318;58.724;50.180;2022-08-03T07:51:58;4.00;4.00;3.67
55449;PMS5003;41318;58.724;50.180;2022-08-03T07:54:47;4.00;4.00;3.75
55449;PMS5003;41318;58.724;50.180;2022-08-03T07:57:18;4.00;4.00;3.00
55449;PMS5003;41318;58.724;50.180;2022-08-03T07:59:49;4.25;4.25;4.00
55449;PMS5003;41318;58.724;50.180;2022-08-03T08:02:20;4.33;4.33;3.67
55449;PMS5003;41318;58.724;50.180;2022-08-03T08:04:51;4.33;4.33;4.00
55449;PMS5003;41318;58.724;50.180;2022-08-03T08:07:22;4.25;4.25;4.00
55449;PMS5003;41318;58.724;50.180;2022-08-03T08:09:53;3.00;3.00;3.00
55449;PMS5003;41318;58.724;50.180;2022-08-03T08:12:24;3.00;3.00;3.00
55449;PMS5003;41318;58.724;50.180;2022-08-03T08:14:55;3.00;3.00;3.00
55449;PMS5003;41318;58.724;50.180;2022-08-03T08:17:26;0.00;0.00;0.00
55449;PMS5003;41318;58.724;50.180;2022-08-03T08:19:56;2.67;2.67;2.33
55449;PMS5003;41318;58.724;50.180;2022-08-03T08:22:27;2.00;2.00;1.67
55449;PMS5003;41318;58.724;50.180;2022-08-03T08:24:58;3.00;3.00;3.00
55449;PMS5003;41318;58.724;50.180;2022-08-03T08:27:29;2.67;2.67;2.67
55449;PMS5003;41318;58.724;50.180;2022-08-03T08:30:02;4.75;4.75;4.00
55449;PMS5003;41318;58.724;50.180;2022-08-03T08:32:34;5.00;5.00;4.00
55449;PMS5003;41318;58.724;50.180;2022-08-03T08:35:07;4.00;4.00;4.00
55449;PMS5003;41318;58.724;50.180;2022-08-03T08:37:38;0.00;0.00;0.00
55449;PMS5003;41318;58.724;50.180;2022-08-03T08:40:10;4.00;4.00;3.75
55449;PMS5003;41318;58.724;50.180;2022-08-03T08:42:43;3.00;3.00;3.00
55449;PMS5003;41318;58.724;50.180;2022-08-03T08:45:14;2.00;2.00;2.00
55449;PMS5003;41318;58.724;50.180;2022-08-03T08:47:45;3.00;3.00;3.00
55449;PMS5003;41318;58.724;50.180;2022-08-03T08:50:18;3.00;3.00;2.75
55449;PMS5003;41318;58.724;50.180;2022-08-03T08:52:49;3.00;3.00;2.50
55449;PMS5003;41318;58.724;50.180;2022-08-03T08:55:22;3.00;3.00;3.00
55449;PMS5003;41318;58.724;50.180;2022-08-03T08:57:56;2.50;2.50;2.50
55449;PMS5003;41318;58.724;50.180;2022-08-03T09:00:31;2.00;2.00;2.00
55449;PMS5003;41318;58.724;50.180;2022-08-03T09:03:02;5.00;5.00;4.67
55449;PMS5003;41318;58.724;50.180;2022-08-03T09:05:36;5.75;5.75;5.00
55449;PMS5003;41318;58.724;50.180;2022-08-03T09:08:08;3.75;3.75;3.25
55449;PMS5003;41318;58.724;50.180;2022-08-03T09:10:39;5.00;5.00;4.75
55449;PMS5003;41318;58.724;50.180;2022-08-03T09:13:10;5.00;5.00;4.00
55449;PMS5003;41318;58.724;50.180;2022-08-03T09:16:13;5.75;5.75;5.50
55449;PMS5003;41318;58.724;50.180;2022-08-03T09:18:46;5.00;5.00;4.50
55449;PMS5003;41318;58.724;50.180;2022-08-03T09:21:24;3.75;3.75;3.50
55449;PMS5003;41318;58.724;50.180;2022-08-03T09:23:56;2.50;2.50;1.75
55449;PMS5003;41318;58.724;50.180;2022-08-03T09:26:28;4.00;4.00;4.00
55449;PMS5003;41318;58.724;50.180;2022-08-03T09:29:00;3.75;3.75;3.00
55449;PMS5003;41318;58.724;50.180;2022-08-03T09:34:04;3.00;3.00;3.00
55449;PMS5003;41318;58.724;50.180;2022-08-03T09:36:45;93.75;89.00;53.00
55449;PMS5003;41318;58.724;50.180;2022-08-03T09:39:17;5.75;5.75;5.00
55449;PMS5003;41318;58.724;50.180;2022-08-03T09:42:02;3.50;3.50;3.25
55449;PMS5003;41318;58.724;50.180;2022-08-03T09:44:35;4.00;4.00;4.00
55449;PMS5003;41318;58.724;50.180;2022-08-03T09:47:07;4.25;4.25;4.25
55449;PMS5003;41318;58.724;50.180;2022-08-03T09:49:42;4.75;4.75;4.00
55449;PMS5003;41318;58.724;50.180;2022-08-03T09:52:30;5.50;5.50;5.00
55449;PMS5003;41318;58.724;50.180;2022-08-03T09:55:06;4.75;4.75;4.25
55449;PMS5003;41318;58.724;50.180;2022-08-03T09:57:38;4.25;4.25;4.00
55449;PMS5003;41318;58.724;50.180;2022-08-03T10:00:11;3.25;3.25;3.25
55449;PMS5003;41318;58.724;50.180;2022-08-03T10:02:43;3.00;3.00;2.25
55449;PMS5003;41318;58.724;50.180;2022-08-03T10:05:14;3.00;3.00;2.50
55449;PMS5003;41318;58.724;50.180;2022-08-03T10:07:46;3.00;3.00;3.00
55449;PMS5003;41318;58.724;50.180;2022-08-03T10:10:17;5.25;5.25;5.00
55449;PMS5003;41318;58.724;50.180;2022-08-03T10:12:49;3.25;3.25;3.00
55449;PMS5003;41318;58.724;50.180;2022-08-03T10:15:20;4.00;4.00;4.00
55449;PMS5003;41318;58.724;50.180;2022-08-03T10:17:51;7.00;7.00;7.00
55449;PMS5003;41318;58.724;50.180;2022-08-03T10:20:22;10.75;10.75;8.00
55449;PMS5003;41318;58.724;50.180;2022-08-03T10:22:53;5.25;5.25;4.50
55449;PMS5003;41318;58.724;50.180;2022-08-03T10:25:29;3.25;3.25;3.00
55449;PMS5003;41318;58.724;50.180;2022-08-03T10:28:01;9.50;9.50;7.25
55449;PMS5003;41318;58.724;50.180;2022-08-03T10:30:35;4.75;4.75;4.00
55449;PMS5003;41318;58.724;50.180;2022-08-03T10:33:10;5.00;5.00;4.75
55449;PMS5003;41318;58.724;50.180;2022-08-03T10:35:42;4.00;4.00;4.00
55449;PMS5003;41318;58.724;50.180;2022-08-03T10:38:17;6.25;6.25;5.00
55449;PMS5003;41318;58.724;50.180;2022-08-03T10:40:51;3.50;3.50;3.50
55449;PMS5003;41318;58.724;50.180;2022-08-03T10:43:25;5.50;5.50;5.00
55449;PMS5003;41318;58.724;50.180;2022-08-03T10:45:57;6.00;6.00;5.50
55449;PMS5003;41318;58.724;50.180;2022-08-03T10:48:28;8.00;8.00;7.00
55449;PMS5003;41318;58.724;50.180;2022-08-03T10:51:00;4.25;4.25;3.50
55449;PMS5003;41318;58.724;50.180;2022-08-03T10:53:38;4.00;4.00;4.00
55449;PMS5003;41318;58.724;50.180;2022-08-03T11:02:18;6.00;6.00;6.00
55449;PMS5003;41318;58.724;50.180;2022-08-03T11:04:48;4.67;4.67;4.00
55449;PMS5003;41318;58.724;50.180;2022-08-03T11:07:39;4.75;4.75;4.00
55449;PMS5003;41318;58.724;50.180;2022-08-03T11:10:28;3.00;2.25;1.00
55449;PMS5003;41318;58.724;50.180;2022-08-03T11:13:18;5.25;5.25;5.00
55449;PMS5003;41318;58.724;50.180;2022-08-03T11:15:51;4.75;4.75;4.75
55449;PMS5003;41318;58.724;50.180;2022-08-03T11:18:23;4.00;4.00;4.00
55449;PMS5003;41318;58.724;50.180;2022-08-03T11:20:55;0.00;0.00;0.00
55449;PMS5003;41318;58.724;50.180;2022-08-03T11:23:45;5.00;5.00;5.00
55449;PMS5003;41318;58.724;50.180;2022-08-03T11:26:35;4.00;4.00;3.00
55449;PMS5003;41318;58.724;50.180;2022-08-03T11:31:56;3.33;3.33;2.67
55449;PMS5003;41318;58.724;50.180;2022-08-03T11:34:27;5.75;5.75;4.75
55449;PMS5003;41318;58.724;50.180;2022-08-03T11:40:06;3.00;3.00;2.25
55449;PMS5003;41318;58.724;50.180;2022-08-03T11:42:37;3.00;3.00;3.00
55449;PMS5003;41318;58.724;50.180;2022-08-03T11:45:08;4.00;4.00;3.00
55449;PMS5003;41318;58.724;50.180;2022-08-03T11:47:39;4.25;4.25;3.00
55449;PMS5003;41318;58.724;50.180;2022-08-03T11:50:11;3.75;3.25;3.00
55449;PMS5003;41318;58.724;50.180;2022-08-03T11:52:42;65.20;54.80;35.60
55449;PMS5003;41318;58.724;50.180;2022-08-03T11:55:14;4.50;4.50;3.75
55449;PMS5003;41318;58.724;50.180;2022-08-03T11:57:45;2.75;2.75;2.25
55449;PMS5003;41318;58.724;50.180;2022-08-03T12:00:23;2.25;2.25;2.00
55449;PMS5003;41318;58.724;50.180;2022-08-03T12:02:55;2.75;2.75;2.75
55449;PMS5003;41318;58.724;50.180;2022-08-03T12:05:37;1.75;1.75;1.00
55449;PMS5003;41318;58.724;50.180;2022-08-03T12:08:09;2.25;2.25;2.00
55449;PMS5003;41318;58.724;50.180;2022-08-03T12:10:45;0.00;0.00;0.00
55449;PMS5003;41318;58.724;50.180;2022-08-03T12:13:17;6.25;6.25;6.00
55449;PMS5003;41318;58.724;50.180;2022-08-03T12:15:52;4.50;4.50;4.50
55449;PMS5003;41318;58.724;50.180;2022-08-03T12:18:23;8.75;8.75;8.25
55449;PMS5003;41318;58.724;50.180;2022-08-03T12:21:02;11.50;11.50;9.75
55449;PMS5003;41318;58.724;50.180;2022-08-03T12:23:34;5.00;5.00;4.25
55449;PMS5003;41318;58.724;50.180;2022-08-03T12:26:06;4.75;4.75;4.75
55449;PMS5003;41318;58.724;50.180;2022-08-03T12:28:38;39.40;34.60;24.60
55449;PMS5003;41318;58.724;50.180;2022-08-03T12:31:16;14.50;14.50;11.50
55449;PMS5003;41318;58.724;50.180;2022-08-03T12:34:01;10.00;10.00;8.75
55449;PMS5003;41318;58.724;50.180;2022-08-03T12:36:37;5.00;5.00;4.50
55449;PMS5003;41318;58.724;50.180;2022-08-03T12:39:08;2.00;2.00;2.00
55449;PMS5003;41318;58.724;50.180;2022-08-03T12:41:41;3.00;3.00;3.00
55449;PMS5003;41318;58.724;50.180;2022-08-03T12:44:12;5.00;5.00;4.50
55449;PMS5003;41318;58.724;50.180;2022-08-03T12:46:43;3.00;3.00;3.00
55449;PMS5003;41318;58.724;50.180;2022-08-03T12:49:15;3.00;3.00;2.00
55449;PMS5003;41318;58.724;50.180;2022-08-03T12:54:23;11.75;11.75;9.50
55449;PMS5003;41318;58.724;50.180;2022-08-03T12:57:13;5.50;5.50;4.25
55449;PMS5003;41318;58.724;50.180;2022-08-03T12:59:45;13.00;13.00;10.00
55449;PMS5003;41318;58.724;50.180;2022-08-03T13:02:18;6.25;6.25;5.00
55449;PMS5003;41318;58.724;50.180;2022-08-03T13:04:50;5.25;5.25;5.25
55449;PMS5003;41318;58.724;50.180;2022-08-03T13:07:21;6.25;6.25;6.00
55449;PMS5003;41318;58.724;50.180;2022-08-03T13:09:53;4.00;4.00;4.00
55449;PMS5003;41318;58.724;50.180;2022-08-03T13:12:25;4.25;4.25;4.00
55449;PMS5003;41318;58.724;50.180;2022-08-03T13:14:57;5.00;5.00;4.75
55449;PMS5003;41318;58.724;50.180;2022-08-03T13:17:28;3.25;3.25;3.00
55449;PMS5003;41318;58.724;50.180;2022-08-03T13:19:59;3.00;3.00;2.75
55449;PMS5003;41318;58.724;50.180;2022-08-03T13:22:48;3.25;3.25;2.75
55449;PMS5003;41318;58.724;50.180;2022-08-03T13:25:20;6.25;6.25;6.00
55449;PMS5003;41318;58.724;50.180;2022-08-03T13:27:52;6.50;6.50;5.50
55449;PMS5003;41318;58.724;50.180;2022-08-03T13:30:23;5.00;5.00;5.00
55449;PMS5003;41318;58.724;50.180;2022-08-03T13:33:13;5.00;5.00;4.75
55449;PMS5003;41318;58.724;50.180;2022-08-03T13:35:44;3.00;3.00;3.00
55449;PMS5003;41318;58.724;50.180;2022-08-03T13:38:15;3.00;3.00;3.00
55449;PMS5003;41318;58.724;50.180;2022-08-03T13:40:46;3.00;3.00;3.00
55449;PMS5003;41318;58.724;50.180;2022-08-03T13:43:16;4.50;4.50;4.00
55449;PMS5003;41318;58.724;50.180;2022-08-03T13:46:06;13.75;13.75;12.00
55449;PMS5003;41318;58.724;50.180;2022-08-03T13:48:37;19.00;19.00;17.75
55449;PMS5003;41318;58.724;50.180;2022-08-03T13:51:08;15.25;15.25;14.25
55449;PMS5003;41318;58.724;50.180;2022-08-03T13:53:39;16.33;16.33;15.33
55449;PMS5003;41318;58.724;50.180;2022-08-03T13:56:09;12.67;12.67;10.00
55449;PMS5003;41318;58.724;50.180;2022-08-03T13:58:40;5.50;5.50;4.50
55449;PMS5003;41318;58.724;50.180;2022-08-03T14:01:30;5.25;5.25;4.50
55449;PMS5003;41318;58.724;50.180;2022-08-03T14:04:20;3.25;3.25;3.25
55449;PMS5003;41318;58.724;50.180;2022-08-03T14:07:09;8.25;8.25;7.00
55449;PMS5003;41318;58.724;50.180;2022-08-03T14:09:44;5.00;5.00;4.25
55449;PMS5003;41318;58.724;50.180;2022-08-03T14:12:15;7.00;7.00;6.00
55449;PMS5003;41318;58.724;50.180;2022-08-03T14:14:46;9.33;9.33;7.67
55449;PMS5003;41318;58.724;50.180;2022-08-03T14:17:16;5.67;5.67;5.67
55449;PMS5003;41318;58.724;50.180;2022-08-03T14:19:47;6.50;6.50;5.00
55449;PMS5003;41318;58.724;50.180;2022-08-03T14:22:18;5.00;5.00;4.33
55449;PMS5003;41318;58.724;50.180;2022-08-03T14:24:49;2.00;2.00;2.00
55449;PMS5003;41318;58.724;50.180;2022-08-03T14:27:20;4.50;4.50;3.75
55449;PMS5003;41318;58.724;50.180;2022-08-03T14:29:51;4.25;4.25;4.00
55449;PMS5003;41318;58.724;50.180;2022-08-03T14:32:22;68.75;63.25;40.00
55449;PMS5003;41318;58.724;50.180;2022-08-03T14:35:11;39.20;34.60;21.80
55449;PMS5003;41318;58.724;50.180;2022-08-03T14:37:42;13.75;13.75;11.00
55449;PMS5003;41318;58.724;50.180;2022-08-03T14:40:13;14.00;14.00;11.50
55449;PMS5003;41318;58.724;50.180;2022-08-03T14:42:44;8.00;8.00;7.00
55449;PMS5003;41318;58.724;50.180;2022-08-03T14:45:34;7.25;7.25;6.75
55449;PMS5003;41318;58.724;50.180;2022-08-03T14:48:04;8.00;8.00;7.00
55449;PMS5003;41318;58.724;50.180;2022-08-03T14:50:36;5.50;5.50;5.25
55449;PMS5003;41318;58.724;50.180;2022-08-03T14:53:06;7.50;7.50;6.50
55449;PMS5003;41318;58.724;50.180;2022-08-03T14:55:56;4.50;4.50;4.00
55449;PMS5003;41318;58.724;50.180;2022-08-03T14:58:27;7.00;7.00;6.00
55449;PMS5003;41318;58.724;50.180;2022-08-03T15:00:58;4.75;4.75;4.00